createdAt,value
2022-12-05T00:00:19.897Z,95.51
2022-12-05T00:02:39.213Z,95.40
2022-12-05T00:03:34.763Z,95.20
2022-12-05T00:04:32.052Z,95.20
2022-12-05T00:05:40.698Z,95.30
2022-12-05T00:06:33.069Z,95.30
2022-12-05T00:07:31.909Z,95.30
2022-12-05T00:08:33.665Z,95.30
2022-12-05T00:09:32.440Z,95.40
2022-12-05T00:10:31.853Z,95.51
2022-12-05T00:11:32.966Z,95.51
2022-12-05T00:12:32.412Z,95.40
2022-12-05T00:13:33.426Z,95.51
2022-12-05T00:14:41.840Z,95.62
2022-12-05T00:15:35.316Z,95.62
2022-12-05T00:16:33.554Z,95.62
2022-12-05T00:17:32.541Z,95.72
2022-12-05T00:18:32.454Z,95.72
2022-12-05T00:19:31.825Z,95.51
2022-12-05T00:20:32.157Z,95.51
2022-12-05T00:21:35.427Z,95.62
2022-12-05T00:22:37.314Z,95.62
2022-12-05T00:23:38.673Z,95.51
2022-12-05T00:24:32.243Z,95.40
2022-12-05T00:25:31.739Z,95.45
2022-12-05T00:26:34.694Z,95.45
2022-12-05T00:27:32.458Z,95.51
2022-12-05T00:28:32.410Z,95.72
2022-12-05T00:29:34.390Z,95.72
2022-12-05T00:30:34.007Z,96.03
2022-12-05T00:31:32.889Z,96.03
2022-12-05T00:32:33.774Z,96.03
2022-12-05T00:33:32.390Z,96.03
2022-12-05T00:34:35.032Z,95.93
2022-12-05T00:35:35.139Z,95.83
2022-12-05T00:36:32.026Z,95.83
2022-12-05T00:37:33.856Z,95.83
2022-12-05T00:38:36.337Z,95.83
2022-12-05T00:39:41.984Z,95.83
2022-12-05T00:40:31.485Z,96.03
2022-12-05T00:41:31.482Z,96.24
2022-12-05T00:42:31.397Z,96.14
2022-12-05T00:43:31.776Z,96.14
2022-12-05T00:44:31.293Z,96.14
2022-12-05T00:45:31.482Z,96.24
2022-12-05T00:46:31.463Z,96.24
2022-12-05T00:47:31.414Z,96.34
2022-12-05T00:48:31.529Z,96.34
2022-12-05T00:49:31.465Z,96.45
2022-12-05T00:50:31.217Z,96.45
2022-12-05T00:51:31.199Z,96.45
2022-12-05T00:52:31.735Z,96.45
2022-12-05T00:53:32.121Z,96.55
2022-12-05T00:54:31.563Z,96.66
2022-12-05T00:55:31.668Z,96.66
2022-12-05T00:56:31.409Z,96.55
2022-12-05T00:57:31.854Z,96.55
2022-12-05T00:58:31.198Z,96.66
2022-12-05T00:59:31.174Z,96.66
2022-12-05T01:00:31.150Z,96.66
2022-12-05T01:01:31.194Z,96.76
2022-12-05T01:02:31.254Z,96.55
2022-12-05T01:03:31.300Z,96.55
2022-12-05T01:04:31.193Z,96.66
2022-12-05T01:05:44.039Z,96.66
2022-12-05T01:06:46.915Z,96.66
2022-12-05T01:07:31.337Z,96.66
2022-12-05T01:08:32.029Z,96.66
2022-12-05T01:09:33.781Z,96.55
2022-12-05T01:10:32.622Z,96.55
2022-12-05T01:11:34.057Z,96.66
2022-12-05T01:12:33.013Z,96.76
2022-12-05T01:13:31.306Z,96.76
2022-12-05T01:14:36.190Z,96.66
2022-12-05T01:15:32.351Z,96.66
2022-12-05T01:16:37.838Z,96.55
2022-12-05T01:17:33.785Z,96.55
2022-12-05T01:18:31.672Z,96.55
2022-12-05T01:19:37.227Z,96.55
2022-12-05T01:20:32.277Z,96.66
2022-12-05T01:21:30.997Z,96.66
2022-12-05T01:22:33.795Z,96.66
2022-12-05T01:23:32.414Z,96.66
2022-12-05T01:24:34.759Z,96.66
2022-12-05T01:25:30.965Z,96.66
2022-12-05T01:26:30.870Z,96.66
2022-12-05T01:27:31.419Z,96.66
2022-12-05T01:28:41.424Z,96.76
2022-12-05T01:29:34.174Z,96.86
2022-12-05T01:30:33.739Z,96.76
2022-12-05T01:31:31.393Z,96.66
2022-12-05T01:32:38.016Z,96.66
2022-12-05T01:33:31.017Z,96.55
2022-12-05T01:34:32.998Z,96.55
2022-12-05T01:35:36.316Z,96.66
2022-12-05T01:36:32.002Z,96.66
2022-12-05T01:37:31.776Z,96.66
2022-12-05T01:38:32.516Z,96.66
2022-12-05T01:39:30.883Z,96.55
2022-12-05T01:40:38.121Z,96.55
2022-12-05T01:41:38.112Z,96.66
2022-12-05T01:42:31.073Z,96.76
2022-12-05T01:43:45.926Z,96.86
2022-12-05T01:44:30.985Z,96.97
2022-12-05T01:45:31.930Z,96.97
2022-12-05T01:46:32.018Z,96.97
2022-12-05T01:47:31.005Z,97.07
2022-12-05T01:49:06.903Z,97.17
2022-12-05T01:49:31.755Z,97.07
2022-12-05T01:50:30.817Z,96.97
2022-12-05T01:51:31.473Z,96.86
2022-12-05T01:52:31.944Z,96.76
2022-12-05T01:53:34.634Z,96.76
2022-12-05T01:54:34.325Z,96.76
2022-12-05T01:55:32.702Z,96.76
2022-12-05T01:56:30.801Z,96.76
2022-12-05T01:57:31.310Z,96.76
2022-12-05T01:58:31.385Z,96.76
2022-12-05T01:59:31.872Z,96.76
2022-12-05T02:00:34.742Z,96.76
2022-12-05T02:01:30.463Z,96.86
2022-12-05T02:02:30.643Z,96.97
2022-12-05T02:03:30.461Z,97.07
2022-12-05T02:04:33.380Z,97.17
2022-12-05T02:05:30.410Z,97.17
2022-12-05T02:06:30.405Z,97.28
2022-12-05T02:07:31.823Z,97.38
2022-12-05T02:08:31.529Z,97.38
2022-12-05T02:09:33.253Z,97.28
2022-12-05T02:10:30.330Z,97.28
2022-12-05T02:11:31.530Z,97.28
2022-12-05T02:12:33.838Z,97.38
2022-12-05T02:13:30.484Z,97.49
2022-12-05T02:14:30.254Z,97.49
2022-12-05T02:15:32.040Z,97.59
2022-12-05T02:16:30.526Z,97.70
2022-12-05T02:17:38.891Z,97.80
2022-12-05T02:18:30.578Z,97.91
2022-12-05T02:19:30.423Z,97.91
2022-12-05T02:20:30.611Z,97.91
2022-12-05T02:21:30.330Z,98.01
2022-12-05T02:22:31.027Z,98.22
2022-12-05T02:23:32.888Z,98.32
2022-12-05T02:24:31.668Z,98.32
2022-12-05T02:25:30.346Z,98.32
2022-12-05T02:26:30.295Z,98.22
2022-12-05T02:27:30.057Z,98.22
2022-12-05T02:28:31.310Z,98.11
2022-12-05T02:29:36.920Z,98.11
2022-12-05T02:30:30.320Z,98.11
2022-12-05T02:31:30.248Z,98.22
2022-12-05T02:32:30.137Z,98.22
2022-12-05T02:33:30.043Z,98.32
2022-12-05T02:34:30.171Z,98.32
2022-12-05T02:35:33.279Z,98.43
2022-12-05T02:36:30.533Z,98.53
2022-12-05T02:37:31.379Z,98.63
2022-12-05T02:38:31.026Z,98.63
2022-12-05T02:39:29.904Z,98.63
2022-12-05T02:40:30.023Z,98.63
2022-12-05T02:41:30.489Z,98.63
2022-12-05T02:42:29.823Z,98.63
2022-12-05T02:43:29.967Z,98.63
2022-12-05T02:44:30.096Z,98.63
2022-12-05T02:45:30.316Z,98.63
2022-12-05T02:46:30.109Z,98.53
2022-12-05T02:47:29.929Z,98.53
2022-12-05T02:48:30.345Z,98.53
2022-12-05T02:49:29.978Z,98.53
2022-12-05T02:50:33.414Z,98.63
2022-12-05T02:51:31.921Z,98.74
2022-12-05T02:52:29.928Z,98.84
2022-12-05T02:53:30.245Z,98.84
2022-12-05T02:54:30.286Z,98.84
2022-12-05T02:55:29.816Z,98.84
2022-12-05T02:56:29.859Z,98.74
2022-12-05T02:57:29.774Z,98.74
2022-12-05T02:58:29.814Z,98.74
2022-12-05T02:59:29.654Z,98.74
2022-12-05T03:00:29.969Z,98.74
2022-12-05T03:01:29.600Z,98.74
2022-12-05T03:02:31.757Z,98.74
2022-12-05T03:03:30.279Z,98.84
2022-12-05T03:04:30.303Z,98.84
2022-12-05T03:05:29.739Z,98.84
2022-12-05T03:06:30.818Z,98.84
2022-12-05T03:07:29.655Z,98.94
2022-12-05T03:08:30.039Z,99.05
2022-12-05T03:09:30.084Z,99.05
2022-12-05T03:10:29.505Z,99.05
2022-12-05T03:11:29.561Z,99.05
2022-12-05T03:12:30.740Z,99.15
2022-12-05T03:13:30.374Z,99.15
2022-12-05T03:14:31.464Z,99.15
2022-12-05T03:15:29.855Z,99.15
2022-12-05T03:16:33.247Z,99.15
2022-12-05T03:17:30.568Z,99.15
2022-12-05T03:18:29.654Z,99.15
2022-12-05T03:19:31.005Z,99.05
2022-12-05T03:20:29.448Z,99.05
2022-12-05T03:21:29.568Z,99.05
2022-12-05T03:22:30.502Z,99.05
2022-12-05T03:23:29.369Z,99.05
2022-12-05T03:24:29.258Z,99.05
2022-12-05T03:25:31.406Z,99.05
2022-12-05T03:26:31.878Z,99.05
2022-12-05T03:27:30.053Z,99.15
2022-12-05T03:28:29.354Z,99.15
2022-12-05T03:29:29.331Z,99.26
2022-12-05T03:30:29.696Z,99.26
2022-12-05T03:31:29.657Z,99.26
2022-12-05T03:32:29.547Z,99.26
2022-12-05T03:33:29.642Z,99.26
2022-12-05T03:34:29.465Z,99.36
2022-12-05T03:35:31.171Z,99.36
2022-12-05T03:36:29.638Z,99.36
2022-12-05T03:37:29.852Z,99.46
2022-12-05T03:38:29.150Z,99.36
2022-12-05T03:39:35.916Z,99.46
2022-12-05T03:40:32.196Z,99.46
2022-12-05T03:41:30.520Z,99.67
2022-12-05T03:42:29.415Z,99.67
2022-12-05T03:43:32.682Z,99.57
2022-12-05T03:44:30.234Z,99.67
2022-12-05T03:45:29.999Z,99.67
2022-12-05T03:46:30.505Z,99.67
2022-12-05T03:47:29.145Z,99.67
2022-12-05T03:48:29.281Z,99.67
2022-12-05T03:49:33.644Z,99.77
2022-12-05T03:50:30.511Z,99.77
2022-12-05T03:51:29.588Z,99.77
2022-12-05T03:52:30.271Z,99.77
2022-12-05T03:53:29.835Z,99.77
2022-12-05T03:54:29.245Z,99.77
2022-12-05T03:55:29.117Z,99.77
2022-12-05T03:56:29.898Z,99.77
2022-12-05T03:57:29.127Z,99.77
2022-12-05T03:58:30.383Z,99.77
2022-12-05T03:59:29.075Z,99.77
2022-12-05T04:00:29.219Z,99.77
2022-12-05T04:01:34.031Z,99.77
2022-12-05T04:02:31.490Z,99.77
2022-12-05T04:03:29.004Z,99.77
2022-12-05T04:04:29.217Z,99.77
2022-12-05T04:05:29.706Z,99.77
2022-12-05T04:06:29.869Z,99.77
2022-12-05T04:07:29.925Z,99.77
2022-12-05T04:08:29.041Z,99.77
2022-12-05T04:09:31.152Z,99.77
2022-12-05T04:10:29.940Z,99.77
2022-12-05T04:11:30.992Z,99.77
2022-12-05T04:12:30.148Z,99.77
2022-12-05T04:13:30.245Z,99.77
2022-12-05T04:14:29.188Z,99.77
2022-12-05T04:15:29.179Z,99.77
2022-12-05T04:16:29.012Z,99.67
2022-12-05T04:17:30.416Z,99.77
2022-12-05T04:18:31.452Z,99.67
2022-12-05T04:19:28.703Z,99.67
2022-12-05T04:20:29.258Z,99.67
2022-12-05T04:21:28.834Z,99.67
2022-12-05T04:22:28.845Z,99.67
2022-12-05T04:23:28.868Z,99.77
2022-12-05T04:24:28.867Z,99.77
2022-12-05T04:25:28.967Z,99.77
2022-12-05T04:26:29.125Z,99.88
2022-12-05T04:27:29.800Z,99.88
2022-12-05T04:28:28.914Z,99.88
2022-12-05T04:29:28.765Z,99.99
2022-12-05T04:30:28.926Z,99.99
2022-12-05T04:31:35.245Z,99.99
2022-12-05T04:32:28.675Z,99.99
2022-12-05T04:33:28.762Z,99.99
2022-12-05T04:34:29.618Z,99.99
2022-12-05T04:35:29.785Z,99.99
2022-12-05T04:36:31.354Z,99.99
2022-12-05T04:37:28.751Z,99.99
2022-12-05T04:38:28.765Z,99.99
2022-12-05T04:39:28.263Z,99.99
2022-12-05T04:40:28.392Z,99.99
2022-12-05T04:41:28.573Z,99.99
2022-12-05T04:42:28.281Z,99.99
2022-12-05T04:43:30.753Z,99.99
2022-12-05T04:44:29.024Z,99.99
2022-12-05T04:45:33.471Z,99.99
2022-12-05T04:46:29.760Z,99.99
2022-12-05T04:47:35.062Z,99.99
2022-12-05T04:48:29.228Z,99.99
2022-12-05T04:49:29.134Z,99.99
2022-12-05T04:50:30.114Z,99.99
2022-12-05T04:51:28.506Z,99.99
2022-12-05T04:52:29.099Z,99.99
2022-12-05T04:53:28.374Z,99.99
2022-12-05T04:54:32.170Z,99.99
2022-12-05T04:55:30.233Z,99.99
2022-12-05T04:56:31.640Z,99.99
2022-12-05T04:57:29.238Z,99.99
2022-12-05T04:58:28.210Z,99.99
2022-12-05T04:59:29.372Z,99.99
2022-12-05T05:00:30.828Z,99.99
2022-12-05T05:01:39.305Z,99.99
2022-12-05T05:02:35.825Z,99.99
2022-12-05T05:03:28.372Z,99.99
2022-12-05T05:04:29.218Z,99.99
2022-12-05T05:05:29.868Z,99.99
2022-12-05T05:06:32.224Z,99.99
2022-12-05T05:07:31.462Z,99.99
2022-12-05T05:08:28.474Z,99.99
2022-12-05T05:09:29.450Z,99.99
2022-12-05T05:10:28.877Z,99.99
2022-12-05T05:11:37.403Z,99.99
2022-12-05T05:12:29.936Z,99.99
2022-12-05T05:13:37.286Z,99.99
2022-12-05T05:14:30.639Z,99.99
2022-12-05T05:15:28.459Z,99.99
2022-12-05T05:20:26.316Z,99.99
2022-12-05T05:21:27.862Z,99.99
2022-12-05T05:22:24.048Z,99.99
2022-12-05T05:23:25.431Z,99.99
2022-12-05T05:24:28.304Z,99.99
2022-12-05T05:31:12.460Z,99.99
2022-12-05T05:35:05.850Z,99.99
2022-12-05T05:36:19.751Z,99.99
2022-12-05T05:37:10.335Z,99.99
2022-12-05T05:38:08.290Z,99.99
2022-12-05T05:39:17.245Z,99.99
2022-12-05T05:40:11.535Z,99.99
2022-12-05T05:41:06.270Z,99.99
2022-12-05T05:42:10.123Z,99.99
2022-12-05T05:43:05.620Z,99.99
2022-12-05T05:44:06.020Z,99.99
2022-12-05T05:45:05.737Z,99.99
2022-12-05T05:46:11.835Z,99.99
2022-12-05T05:47:09.814Z,99.99
2022-12-05T05:48:07.140Z,99.99
2022-12-05T05:49:06.781Z,99.99
2022-12-05T05:50:27.664Z,99.99
2022-12-05T05:51:10.313Z,99.99
2022-12-05T05:52:06.407Z,99.99
2022-12-05T05:53:06.049Z,99.99
2022-12-05T05:54:07.298Z,99.99
2022-12-05T05:55:07.691Z,99.99
2022-12-05T05:56:14.006Z,99.99
2022-12-05T05:57:05.148Z,99.99
2022-12-05T05:58:07.404Z,99.99
2022-12-05T05:59:05.872Z,99.99
2022-12-05T06:00:05.832Z,99.99
2022-12-05T06:02:26.623Z,99.99
2022-12-05T06:03:27.317Z,99.99
2022-12-05T06:04:25.705Z,99.99
2022-12-05T06:05:24.633Z,99.99
2022-12-05T06:06:26.061Z,99.99
2022-12-05T06:10:30.879Z,99.99
2022-12-05T06:12:54.291Z,99.99
2022-12-05T06:13:55.088Z,99.99
2022-12-05T06:14:57.306Z,99.99
2022-12-05T06:15:53.488Z,99.99
2022-12-05T06:16:59.823Z,99.99
2022-12-05T06:17:57.811Z,99.99
2022-12-05T06:22:57.560Z,99.99
2022-12-05T06:23:58.534Z,99.99
2022-12-05T06:24:55.505Z,99.99
2022-12-05T06:25:55.236Z,99.99
2022-12-05T06:26:58.256Z,99.99
2022-12-05T06:28:03.117Z,99.99
2022-12-05T06:29:04.547Z,99.99
2022-12-05T06:29:55.503Z,99.99
2022-12-05T06:31:06.026Z,99.99
2022-12-05T06:32:03.794Z,99.99
2022-12-05T06:32:56.277Z,99.99
2022-12-05T06:33:55.819Z,99.99
2022-12-05T06:34:55.365Z,99.99
2022-12-05T06:35:57.899Z,99.99
2022-12-05T06:36:55.759Z,99.99
2022-12-05T06:37:55.288Z,99.99
2022-12-05T06:38:55.772Z,99.94
2022-12-05T06:39:55.414Z,99.94
2022-12-05T06:40:56.227Z,99.94
2022-12-05T06:41:56.108Z,99.94
2022-12-05T06:42:59.624Z,99.94
2022-12-05T06:44:01.672Z,99.94
2022-12-05T06:45:10.696Z,99.94
2022-12-05T06:46:07.045Z,99.94
2022-12-05T06:46:57.151Z,99.94
2022-12-05T06:47:55.151Z,99.94
2022-12-05T06:48:54.847Z,99.94
2022-12-05T06:49:55.216Z,99.94
2022-12-05T06:50:58.663Z,99.84
2022-12-05T06:51:58.445Z,99.84
2022-12-05T06:52:55.086Z,99.73
2022-12-05T06:53:55.271Z,99.63
2022-12-05T06:54:55.454Z,99.63
2022-12-05T06:55:54.832Z,99.52
2022-12-05T06:56:56.650Z,99.63
2022-12-05T06:58:01.645Z,99.63
2022-12-05T07:03:48.605Z,99.73
2022-12-05T07:04:41.070Z,99.73
2022-12-05T07:05:42.087Z,99.73
2022-12-05T07:06:50.194Z,99.84
2022-12-05T07:07:41.989Z,99.73
2022-12-05T07:08:42.821Z,99.73
2022-12-05T07:09:42.477Z,99.73
2022-12-05T07:10:43.317Z,99.73
2022-12-05T07:11:41.249Z,99.73
2022-12-05T07:12:40.836Z,99.73
2022-12-05T07:13:40.798Z,99.63
2022-12-05T07:14:48.093Z,99.63
2022-12-05T07:15:42.377Z,99.63
2022-12-05T07:16:40.994Z,99.63
2022-12-05T07:17:41.245Z,99.52
2022-12-05T07:18:43.782Z,99.52
2022-12-05T07:19:40.668Z,99.42
2022-12-05T07:21:03.902Z,99.42
2022-12-05T07:21:42.885Z,99.32
2022-12-05T07:22:40.947Z,99.32
2022-12-05T07:23:40.872Z,99.32
2022-12-05T07:24:44.693Z,99.32
2022-12-05T07:25:40.843Z,99.21
2022-12-05T07:26:46.880Z,99.11
2022-12-05T07:27:40.687Z,99.21
2022-12-05T07:28:40.978Z,99.21
2022-12-05T07:29:40.997Z,99.21
2022-12-05T07:30:41.406Z,99.21
2022-12-05T07:31:41.206Z,99.32
2022-12-05T07:32:41.937Z,99.32
2022-12-05T07:33:41.980Z,99.32
2022-12-05T07:34:42.354Z,99.42
2022-12-05T07:35:41.210Z,99.42
2022-12-05T07:36:42.310Z,99.42
2022-12-05T07:37:40.749Z,99.42
2022-12-05T07:38:40.803Z,99.32
2022-12-05T07:39:40.852Z,99.32
2022-12-05T07:40:41.006Z,99.42
2022-12-05T07:41:40.680Z,99.52
2022-12-05T07:42:40.712Z,99.52
2022-12-05T07:43:41.491Z,99.57
2022-12-05T07:44:40.461Z,99.52
2022-12-05T07:45:40.591Z,99.52
2022-12-05T07:46:40.699Z,99.63
2022-12-05T07:47:41.629Z,99.63
2022-12-05T07:48:40.860Z,99.63
2022-12-05T07:49:40.486Z,99.63
2022-12-05T07:50:40.380Z,99.67
2022-12-05T07:51:40.558Z,99.63
2022-12-05T07:52:40.629Z,99.63
2022-12-05T07:53:40.723Z,99.67
2022-12-05T07:54:40.539Z,99.67
2022-12-05T07:55:40.303Z,99.67
2022-12-05T07:56:46.173Z,99.67
2022-12-05T07:57:44.798Z,99.67
2022-12-05T07:58:40.496Z,99.67
2022-12-05T07:59:41.695Z,99.67
2022-12-05T08:00:40.792Z,99.57
2022-12-05T08:01:41.632Z,99.67
2022-12-05T08:02:40.992Z,99.67
2022-12-05T08:03:40.946Z,99.67
2022-12-05T08:04:44.014Z,99.77
2022-12-05T08:05:41.300Z,99.77
2022-12-05T08:08:10.095Z,99.88
2022-12-05T08:08:55.768Z,99.77
2022-12-05T08:09:55.139Z,99.88
2022-12-05T08:10:56.928Z,99.88
2022-12-05T08:12:00.684Z,99.88
2022-12-05T08:12:55.557Z,99.88
2022-12-05T08:13:54.349Z,99.99
2022-12-05T08:14:56.286Z,99.99
2022-12-05T08:15:55.711Z,99.99
2022-12-05T08:17:27.789Z,99.99
2022-12-05T08:17:55.009Z,99.99
2022-12-05T08:18:56.509Z,99.99
2022-12-05T08:19:54.279Z,99.99
2022-12-05T08:20:55.295Z,99.88
2022-12-05T08:21:55.469Z,99.88
2022-12-05T08:22:55.437Z,99.77
2022-12-05T08:23:55.515Z,99.77
2022-12-05T08:24:56.567Z,99.77
2022-12-05T08:25:56.186Z,99.67
2022-12-05T08:27:00.610Z,99.67
2022-12-05T08:27:55.692Z,99.67
2022-12-05T08:29:30.078Z,99.67
2022-12-05T08:29:56.152Z,99.67
2022-12-05T08:31:18.475Z,99.67
2022-12-05T08:32:01.391Z,99.57
2022-12-05T08:33:01.805Z,99.57
2022-12-05T08:33:59.287Z,99.57
2022-12-05T08:35:00.506Z,99.57
2022-12-05T08:35:56.817Z,99.36
2022-12-05T08:37:01.327Z,99.36
2022-12-05T08:37:55.166Z,99.36
2022-12-05T08:38:55.699Z,99.36
2022-12-05T08:40:00.779Z,99.36
2022-12-05T08:40:58.583Z,99.36
2022-12-05T08:41:58.468Z,99.36
2022-12-05T08:42:56.123Z,99.36
2022-12-05T08:43:55.471Z,99.36
2022-12-05T08:45:12.960Z,99.26
2022-12-05T08:46:23.252Z,99.26
2022-12-05T08:46:55.891Z,99.26
2022-12-05T08:47:58.709Z,99.26
2022-12-05T08:48:57.552Z,99.26
2022-12-05T08:49:59.078Z,99.26
2022-12-05T08:51:05.202Z,99.15
2022-12-05T08:52:00.004Z,99.26
2022-12-05T08:53:00.906Z,99.36
2022-12-05T08:59:15.349Z,99.57
2022-12-05T09:00:15.433Z,99.57
2022-12-05T09:01:15.228Z,99.57
2022-12-05T09:02:14.719Z,99.57
2022-12-05T09:03:14.824Z,99.57
2022-12-05T09:04:14.748Z,99.57
2022-12-05T09:05:27.750Z,99.57
2022-12-05T09:06:15.828Z,99.57
2022-12-05T09:07:14.605Z,99.57
2022-12-05T09:08:14.747Z,99.57
2022-12-05T09:09:14.713Z,99.46
2022-12-05T09:10:14.591Z,99.57
2022-12-05T09:11:14.644Z,99.57
2022-12-05T09:12:14.763Z,99.46
2022-12-05T09:13:14.575Z,99.36
2022-12-05T09:14:14.497Z,99.36
2022-12-05T09:15:14.538Z,99.36
2022-12-05T09:16:14.520Z,99.26
2022-12-05T09:17:14.528Z,99.26
2022-12-05T09:18:14.608Z,99.15
2022-12-05T09:19:14.582Z,99.15
2022-12-05T09:20:14.462Z,99.10
2022-12-05T09:21:14.532Z,99.10
2022-12-05T09:22:14.521Z,99.10
2022-12-05T09:23:16.151Z,99.20
2022-12-05T09:24:14.571Z,99.20
2022-12-05T09:25:14.453Z,99.30
2022-12-05T09:26:14.410Z,99.30
2022-12-05T09:27:14.457Z,99.30
2022-12-05T09:28:14.440Z,99.30
2022-12-05T09:29:18.154Z,99.30
2022-12-05T09:30:14.322Z,99.20
2022-12-05T09:31:14.603Z,99.20
2022-12-05T09:32:14.420Z,99.10
2022-12-05T09:33:14.317Z,99.10
2022-12-05T09:34:14.341Z,99.10
2022-12-05T09:35:14.390Z,98.99
2022-12-05T09:36:14.301Z,98.88
2022-12-05T09:37:37.685Z,98.88
2022-12-05T09:38:15.224Z,98.88
2022-12-05T09:39:14.270Z,98.88
2022-12-05T09:40:14.248Z,98.88
2022-12-05T09:41:14.274Z,98.88
2022-12-05T09:42:14.172Z,98.94
2022-12-05T09:43:14.215Z,98.94
2022-12-05T09:44:14.183Z,98.94
2022-12-05T09:45:14.157Z,98.94
2022-12-05T09:46:14.370Z,99.05
2022-12-05T09:47:14.236Z,99.05
2022-12-05T09:48:14.051Z,99.05
2022-12-05T09:49:14.220Z,99.05
2022-12-05T09:50:14.119Z,99.05
2022-12-05T09:51:14.169Z,98.94
2022-12-05T09:52:14.120Z,98.94
2022-12-05T09:53:14.255Z,98.94
2022-12-05T09:54:14.023Z,98.99
2022-12-05T09:55:14.040Z,98.94
2022-12-05T09:56:14.061Z,98.88
2022-12-05T09:57:14.002Z,98.88
2022-12-05T09:58:14.069Z,98.88
2022-12-05T09:59:13.916Z,98.84
2022-12-05T10:00:13.991Z,98.84
2022-12-05T10:01:14.025Z,98.88
2022-12-05T10:02:14.053Z,98.88
2022-12-05T10:03:13.908Z,98.78
2022-12-05T10:04:13.931Z,98.88
2022-12-05T10:05:14.014Z,98.88
2022-12-05T10:06:14.076Z,98.94
2022-12-05T10:07:13.938Z,98.94
2022-12-05T10:08:14.127Z,98.94
2022-12-05T10:09:13.932Z,98.94
2022-12-05T10:10:19.730Z,99.05
2022-12-05T10:11:14.786Z,99.05
2022-12-05T10:12:13.801Z,99.05
2022-12-05T10:13:13.873Z,99.05
2022-12-05T10:14:13.915Z,98.94
2022-12-05T10:15:13.869Z,98.84
2022-12-05T10:16:13.868Z,98.84
2022-12-05T10:17:13.711Z,98.74
2022-12-05T10:18:13.863Z,98.74
2022-12-05T10:19:13.881Z,98.74
2022-12-05T10:20:13.731Z,98.63
2022-12-05T10:21:13.997Z,98.53
2022-12-05T10:22:17.329Z,98.53
2022-12-05T10:23:28.204Z,98.53
2022-12-05T10:24:14.722Z,98.53
2022-12-05T10:25:13.818Z,98.53
2022-12-05T10:26:13.844Z,98.57
2022-12-05T10:27:13.663Z,98.53
2022-12-05T10:28:13.594Z,98.53
2022-12-05T10:29:13.667Z,98.63
2022-12-05T10:30:13.551Z,98.63
2022-12-05T10:31:13.549Z,98.63
2022-12-05T10:32:13.608Z,98.63
2022-12-05T10:33:13.478Z,98.63
2022-12-05T10:34:13.811Z,98.53
2022-12-05T10:35:13.628Z,98.43
2022-12-05T10:36:13.533Z,98.43
2022-12-05T10:37:13.645Z,98.43
2022-12-05T10:38:13.675Z,98.43
2022-12-05T10:39:13.420Z,98.43
2022-12-05T10:40:13.555Z,98.43
2022-12-05T10:41:13.464Z,98.32
2022-12-05T10:42:13.649Z,98.43
2022-12-05T10:43:13.489Z,98.43
2022-12-05T10:44:13.603Z,98.32
2022-12-05T10:45:13.485Z,98.32
2022-12-05T10:46:17.027Z,98.32
2022-12-05T10:47:13.457Z,98.32
2022-12-05T10:48:13.524Z,98.22
2022-12-05T10:49:13.551Z,98.16
2022-12-05T10:50:13.596Z,98.11
2022-12-05T10:51:13.443Z,98.16
2022-12-05T10:52:13.577Z,98.16
2022-12-05T10:53:13.566Z,98.16
2022-12-05T10:54:13.290Z,98.05
2022-12-05T10:55:13.494Z,98.05
2022-12-05T10:56:30.483Z,97.95
2022-12-05T10:57:14.282Z,97.85
2022-12-05T10:58:17.266Z,97.85
2022-12-05T10:59:13.398Z,97.85
2022-12-05T11:00:13.459Z,97.95
2022-12-05T11:01:13.259Z,98.05
2022-12-05T11:02:13.451Z,98.16
2022-12-05T11:03:13.556Z,98.16
2022-12-05T11:04:13.949Z,98.05
2022-12-05T11:05:13.263Z,98.05
2022-12-05T11:06:13.371Z,98.05
2022-12-05T11:07:13.372Z,97.95
2022-12-05T11:08:13.989Z,97.85
2022-12-05T11:09:13.799Z,97.85
2022-12-05T11:10:13.644Z,97.78
2022-12-05T11:11:13.224Z,97.78
2022-12-05T11:12:13.368Z,97.68
2022-12-05T11:13:13.687Z,97.78
2022-12-05T11:14:13.249Z,97.78
2022-12-05T11:15:13.267Z,97.89
2022-12-05T11:16:13.656Z,97.89
2022-12-05T11:17:13.168Z,97.89
2022-12-05T11:18:13.473Z,97.99
2022-12-05T11:19:13.470Z,97.95
2022-12-05T11:20:13.578Z,97.89
2022-12-05T11:21:12.887Z,97.89
2022-12-05T11:22:13.336Z,97.78
2022-12-05T11:23:13.358Z,97.78
2022-12-05T11:24:13.267Z,97.78
2022-12-05T11:25:13.072Z,97.78
2022-12-05T11:26:13.158Z,97.78
2022-12-05T11:27:13.285Z,97.78
2022-12-05T11:28:13.001Z,97.78
2022-12-05T11:29:13.124Z,97.89
2022-12-05T11:30:13.238Z,97.99
2022-12-05T11:31:13.210Z,97.99
2022-12-05T11:32:13.302Z,97.99
2022-12-05T11:33:13.170Z,97.99
2022-12-05T11:34:13.723Z,97.89
2022-12-05T11:35:14.348Z,97.89
2022-12-05T11:36:13.506Z,97.78
2022-12-05T11:37:13.445Z,97.72
2022-12-05T11:38:13.257Z,97.72
2022-12-05T11:39:12.784Z,97.72
2022-12-05T11:40:12.978Z,97.72
2022-12-05T11:41:13.298Z,97.72
2022-12-05T11:42:13.151Z,97.72
2022-12-05T11:43:13.657Z,97.83
2022-12-05T11:44:13.251Z,97.83
2022-12-05T11:45:14.630Z,97.94
2022-12-05T11:46:13.365Z,97.94
2022-12-05T11:47:12.802Z,97.94
2022-12-05T11:48:13.056Z,97.83
2022-12-05T11:49:12.578Z,97.62
2022-12-05T11:50:12.504Z,97.52
2022-12-05T11:51:12.712Z,97.52
2022-12-05T11:52:12.507Z,97.52
2022-12-05T11:53:12.541Z,97.52
2022-12-05T11:54:12.581Z,97.52
2022-12-05T11:55:12.752Z,97.41
2022-12-05T11:56:13.050Z,97.52
2022-12-05T11:57:13.366Z,97.41
2022-12-05T11:58:13.375Z,97.41
2022-12-05T11:59:12.503Z,97.41
2022-12-05T12:00:12.440Z,97.41
2022-12-05T12:01:12.469Z,97.52
2022-12-05T12:02:16.817Z,97.52
2022-12-05T12:03:12.813Z,97.52
2022-12-05T12:04:13.410Z,97.52
2022-12-05T12:05:12.501Z,97.52
2022-12-05T12:06:13.493Z,97.62
2022-12-05T12:07:12.594Z,97.62
2022-12-05T12:08:26.983Z,97.52
2022-12-05T12:10:42.230Z,97.52
2022-12-05T12:11:41.694Z,97.52
2022-12-05T12:12:42.300Z,97.62
2022-12-05T12:13:40.507Z,97.62
2022-12-05T12:14:42.296Z,97.62
2022-12-05T12:15:40.641Z,97.52
2022-12-05T12:16:40.973Z,97.52
2022-12-05T12:17:40.515Z,97.62
2022-12-05T12:18:40.705Z,97.62
2022-12-05T12:19:50.720Z,97.62
2022-12-05T12:20:40.646Z,97.72
2022-12-05T12:21:40.487Z,97.72
2022-12-05T12:22:40.408Z,97.72
2022-12-05T12:23:40.596Z,97.62
2022-12-05T12:24:40.340Z,97.62
2022-12-05T12:25:40.690Z,97.62
2022-12-05T12:26:40.406Z,97.62
2022-12-05T12:27:42.620Z,97.62
2022-12-05T12:28:40.409Z,97.62
2022-12-05T12:29:40.501Z,97.62
2022-12-05T12:30:40.797Z,97.62
2022-12-05T12:31:41.013Z,97.62
2022-12-05T12:32:40.597Z,97.62
2022-12-05T12:33:41.216Z,97.62
2022-12-05T12:34:41.104Z,97.72
2022-12-05T12:35:42.662Z,97.62
2022-12-05T12:36:40.696Z,97.62
2022-12-05T12:37:43.122Z,97.41
2022-12-05T12:38:46.835Z,97.35
2022-12-05T12:39:42.847Z,97.35
2022-12-05T12:40:42.055Z,97.31
2022-12-05T12:41:40.471Z,97.35
2022-12-05T12:42:40.842Z,97.46
2022-12-05T12:43:56.800Z,97.46
2022-12-05T12:44:42.164Z,97.46
2022-12-05T12:45:42.106Z,97.46
2022-12-05T12:46:41.546Z,97.35
2022-12-05T12:47:41.311Z,97.35
2022-12-05T12:48:41.058Z,97.35
2022-12-05T12:49:40.455Z,97.46
2022-12-05T12:50:43.784Z,97.46
2022-12-05T12:51:40.688Z,97.56
2022-12-05T12:52:40.615Z,97.67
2022-12-05T12:55:47.934Z,97.77
2022-12-05T12:56:45.961Z,97.88
2022-12-05T12:57:46.291Z,97.88
2022-12-05T12:58:45.933Z,97.88
2022-12-05T12:59:46.420Z,97.88
2022-12-05T13:00:46.996Z,97.88
2022-12-05T13:01:46.188Z,97.77
2022-12-05T13:02:45.861Z,97.88
2022-12-05T13:03:51.186Z,97.88
2022-12-05T13:04:46.534Z,97.88
2022-12-05T13:05:45.792Z,97.77
2022-12-05T13:06:45.534Z,97.77
2022-12-05T13:07:46.088Z,97.77
2022-12-05T13:08:45.630Z,97.77
2022-12-05T13:09:51.491Z,97.88
2022-12-05T13:10:52.653Z,97.88
2022-12-05T13:11:47.232Z,97.88
2022-12-05T13:12:45.967Z,97.88
2022-12-05T13:13:45.411Z,97.88
2022-12-05T13:14:45.391Z,97.88
2022-12-05T13:15:49.532Z,97.88
2022-12-05T13:16:48.052Z,97.88
2022-12-05T13:17:47.949Z,97.88
2022-12-05T13:18:51.517Z,97.88
2022-12-05T13:19:49.333Z,97.77
2022-12-05T13:20:46.511Z,97.77
2022-12-05T13:21:45.315Z,97.67
2022-12-05T13:22:45.119Z,97.67
2022-12-05T13:23:45.218Z,97.67
2022-12-05T13:24:45.142Z,97.67
2022-12-05T13:25:45.120Z,97.67
2022-12-05T13:26:45.139Z,97.56
2022-12-05T13:27:51.730Z,97.56
2022-12-05T13:29:08.039Z,97.56
2022-12-05T13:29:45.066Z,97.56
2022-12-05T13:30:45.249Z,97.56